Time;durP1;ratioP1;P1;durP2;ratioP2;P2;SDS_P1;SDS_P2;PMS_P1;PMS_P2;Temp;Humidity;BMP_temperature;BMP_pressure;BME280_temperature;BME280_humidity;BME280_pressure;Samples;Min_cycle;Max_cycle;Signal;HPM_P1;HPM_P2
2023/07/24 00:01:57;;;;;;;;;10.67;10.67;;;;;20.95;93.98;99388.47;6312829;20;3518141;-57
2023/07/24 00:04:25;;;;;;;;;12.00;12.00;;;;;20.82;95.50;99376.19;6313150;20;2784725;-51
2023/07/24 00:06:54;;;;;;;;;12.67;11.00;;;;;20.94;94.30;99378.59;6309212;20;3515895;-54
2023/07/24 00:09:22;;;;;;;;;12.00;10.67;;;;;20.92;94.26;99383.38;6311235;20;3514854;-57
2023/07/24 00:11:50;;;;;;;;;13.33;12.33;;;;;20.59;97.10;99388.78;6311292;20;3513881;-53
2023/07/24 00:14:18;;;;;;;;;8.67;8.67;;;;;20.88;95.83;99387.44;6308804;20;3457725;-54
2023/07/24 00:16:46;;;;;;;;;9.33;9.33;;;;;20.50;97.39;99384.25;6308070;20;2758614;-54
2023/07/24 00:19:14;;;;;;;;;9.67;9.67;;;;;20.76;94.89;99382.31;6313106;20;2781524;-52
2023/07/24 00:21:43;;;;;;;;;12.67;12.33;;;;;20.70;95.96;99377.53;6314466;20;2785751;-55
2023/07/24 00:24:11;;;;;;;;;11.67;11.67;;;;;20.54;96.56;99380.22;6305339;20;3515910;-51
2023/07/24 00:26:39;;;;;;;;;10.67;8.67;;;;;20.59;97.13;99366.94;6310839;20;2775253;-54
2023/07/24 00:29:08;;;;;;;;;12.00;12.00;;;;;20.43;97.42;99367.69;6306312;20;3518109;-54
2023/07/24 00:31:35;;;;;;;;;10.67;10.67;;;;;20.48;97.79;99368.03;6315872;20;2794073;-52
2023/07/24 00:34:04;;;;;;;;;12.00;11.67;;;;;20.59;97.81;99365.06;6311709;20;2786709;-55
2023/07/24 00:36:32;;;;;;;;;14.00;12.67;;;;;20.44;98.10;99363.97;6307815;20;3516945;-53
2023/07/24 00:39:00;;;;;;;;;12.00;11.50;;;;;20.64;97.14;99364.53;6308598;20;2789211;-53
2023/07/24 00:41:28;;;;;;;;;14.00;12.67;;;;;20.64;97.22;99364.53;6309728;20;2483617;-49
2023/07/24 00:43:56;;;;;;;;;10.67;10.67;;;;;20.71;97.45;99362.00;6305882;20;3521167;-54
2023/07/24 00:46:25;;;;;;;;;11.33;11.33;;;;;20.59;97.31;99358.75;6278164;20;3525464;-53
2023/07/24 00:48:53;;;;;;;;;15.33;13.67;;;;;20.35;98.93;99360.38;6276328;20;2483588;-52
2023/07/24 00:51:22;;;;;;;;;11.67;11.67;;;;;20.28;99.26;99351.13;6307327;20;3501419;-55
2023/07/24 00:53:50;;;;;;;;;12.00;11.00;;;;;20.25;99.18;99359.66;6309128;20;3512814;-51
2023/07/24 00:56:18;;;;;;;;;15.00;10.00;;;;;20.33;98.43;99353.38;6305469;20;3509731;-51
2023/07/24 00:58:46;;;;;;;;;13.00;11.00;;;;;20.22;99.92;99353.66;6312974;20;2784653;-53
2023/07/24 01:01:19;;;;;;;;;23.50;20.00;;;;;20.07;100.00;99347.97;6305929;20;2838944;-55
2023/07/24 01:03:47;;;;;;;;;16.00;12.67;;;;;20.34;99.49;99335.97;6275643;20;3531006;-53
2023/07/24 01:06:15;;;;;;;;;15.67;13.67;;;;;20.15;99.98;99340.69;6276299;20;2483713;-56
2023/07/24 01:08:43;;;;;;;;;13.67;11.00;;;;;20.18;99.63;99343.06;6305886;20;2483692;-53
2023/07/24 01:11:28;;;;;;;;;12.00;11.67;;;;;20.24;99.03;99330.66;6307873;20;3520063;-53
2023/07/24 01:14:17;;;;;;;;;14.00;13.00;;;;;20.04;100.00;99331.97;6305183;20;2485701;-57
2023/07/24 01:16:48;;;;;;;;;13.00;13.00;;;;;20.04;100.00;99331.97;6304022;20;3538918;-50
2023/07/24 01:19:38;;;;;;;;;16.00;15.00;;;;;20.18;100.00;99340.34;6275558;20;2810824;-53
2023/07/24 01:22:29;;;;;;;;;15.33;13.33;;;;;20.13;99.82;99331.81;6277207;20;3541947;-51
2023/07/24 01:25:27;;;;;;;;;14.00;14.00;;;;;20.25;100.00;99329.66;6282158;20;2492093;-51
2023/07/24 01:27:55;;;;;;;;;16.00;14.67;;;;;20.42;99.15;99326.97;6282246;20;2492000;-51
2023/07/24 01:30:23;;;;;;;;;13.67;13.67;;;;;20.19;99.49;99327.56;6316874;20;3528366;-52
2023/07/24 01:32:51;;;;;;;;;16.00;15.00;;;;;20.08;100.00;99325.16;6313738;20;2483640;-54
2023/07/24 01:35:21;;;;;;;;;13.67;13.67;;;;;20.18;100.00;99331.31;6316065;20;3522250;-54
2023/07/24 01:37:49;;;;;;;;;14.00;14.00;;;;;20.10;100.00;99328.56;6312337;20;3523305;-54
2023/07/24 01:40:19;;;;;;;;;16.67;12.67;;;;;20.20;100.00;99329.28;6279576;20;2487877;-54
2023/07/24 01:42:48;;;;;;;;;13.00;12.67;;;;;19.86;100.00;99330.16;6315646;20;3523257;-53
2023/07/24 01:45:16;;;;;;;;;13.33;11.00;;;;;19.81;100.00;99324.34;6311221;20;3499215;-54
2023/07/24 01:47:44;;;;;;;;;16.00;15.00;;;;;19.80;100.00;99328.09;6314065;20;3548167;-54
2023/07/24 01:50:12;;;;;;;;;16.50;15.00;;;;;19.73;100.00;99327.03;6309300;20;2819076;-53
2023/07/24 01:52:41;;;;;;;;;17.50;15.00;;;;;19.89;100.00;99334.44;6279858;20;2811851;-56
2023/07/24 01:55:09;;;;;;;;;17.33;16.33;;;;;20.03;100.00;99330.22;6278071;20;3573223;-54
2023/07/24 01:57:37;;;;;;;;;14.67;14.67;;;;;20.03;100.00;99325.63;6278908;20;3534604;-51
2023/07/24 02:00:06;;;;;;;;;17.50;13.50;;;;;19.97;100.00;99328.19;6280026;20;2798350;-56
2023/07/24 02:02:34;;;;;;;;;17.33;16.00;;;;;19.92;100.00;99324.06;6282264;20;3549215;-54
2023/07/24 02:05:01;;;;;;;;;12.00;12.00;;;;;19.98;100.00;99318.97;6312744;20;2483699;-52
2023/07/24 02:07:29;;;;;;;;;11.67;11.67;;;;;19.80;100.00;99317.22;6281952;20;3516983;-54
2023/07/24 02:09:57;;;;;;;;;12.00;12.00;;;;;19.89;100.00;99304.47;6313353;20;3515988;-49
2023/07/24 02:12:26;;;;;;;;;17.00;14.00;;;;;19.95;100.00;99307.38;6313438;20;3544023;-52
2023/07/24 02:14:54;;;;;;;;;11.00;11.00;;;;;20.01;100.00;99310.47;6287602;20;2784626;-54
2023/07/24 02:17:23;;;;;;;;;16.00;16.00;;;;;19.87;100.00;99303.78;6281989;20;2833720;-56
2023/07/24 02:19:51;;;;;;;;;12.67;12.67;;;;;20.00;100.00;99303.31;6279904;20;3523297;-56
2023/07/24 02:22:19;;;;;;;;;14.33;13.00;;;;;19.88;100.00;99309.06;6278370;20;3504562;-50
2023/07/24 02:24:48;;;;;;;;;11.67;11.67;;;;;19.89;100.00;99304.47;6278453;20;3526292;-51
2023/07/24 02:27:34;;;;;;;;;18.00;14.67;;;;;20.00;100.00;99314.22;6279257;20;2491968;-49
2023/07/24 02:30:03;;;;;;;;;18.50;14.50;;;;;20.03;100.00;99313.88;6310698;20;2818049;-52
2023/07/24 02:32:32;;;;;;;;;15.00;15.00;;;;;20.13;100.00;99306.44;6276342;20;2810716;-56
2023/07/24 02:35:00;;;;;;;;;17.00;16.00;;;;;20.21;100.00;99306.44;6282356;20;2834025;-60
2023/07/24 02:37:28;;;;;;;;;15.00;15.00;;;;;20.24;100.00;99310.72;6281271;20;2819047;-56
2023/07/24 02:39:56;;;;;;;;;16.67;15.00;;;;;20.30;100.00;99310.03;6281641;20;3548399;-56
2023/07/24 02:42:24;;;;;;;;;19.33;18.00;;;;;20.44;100.00;99305.84;6308070;20;3573362;-57
2023/07/24 02:44:53;;;;;;;;;15.50;14.50;;;;;20.41;100.00;99312.47;6276522;20;2823214;-57
2023/07/24 02:47:21;;;;;;;;;17.50;17.50;;;;;20.38;100.00;99310.94;6280817;20;2836912;-53
2023/07/24 02:49:49;;;;;;;;;19.00;16.50;;;;;20.25;100.00;99315.13;6279030;20;2835775;-52
2023/07/24 02:52:17;;;;;;;;;16.00;14.67;;;;;20.26;100.00;99311.41;6281904;20;2496082;-55
2023/07/24 02:54:46;;;;;;;;;19.33;16.67;;;;;20.41;100.00;99317.94;6308295;20;2837891;-56
2023/07/24 02:57:14;;;;;;;;;17.50;17.50;;;;;20.38;100.00;99315.56;6310341;20;2830493;-55
2023/07/24 02:59:43;;;;;;;;;19.00;17.67;;;;;20.38;100.00;99319.13;6282209;20;3576333;-53
2023/07/24 03:02:11;;;;;;;;;13.50;13.50;;;;;20.31;100.00;99312.63;6282111;20;2801421;-53
2023/07/24 03:04:39;;;;;;;;;12.00;12.00;;;;;19.94;100.00;99316.59;6275460;20;3508993;-54
2023/07/24 03:07:07;;;;;;;;;12.00;12.00;;;;;19.78;100.00;99319.22;6312567;20;2487813;-51
2023/07/24 03:09:35;;;;;;;;;14.67;13.00;;;;;19.78;100.00;99311.06;6312847;20;3514946;-52
2023/07/24 03:12:03;;;;;;;;;16.00;14.00;;;;;19.45;100.00;99315.44;6312557;20;2489857;-57
2023/07/24 03:14:31;;;;;;;;;17.50;13.50;;;;;19.43;100.00;99312.00;6282567;20;2810871;-54
2023/07/24 03:16:59;;;;;;;;;17.00;14.33;;;;;19.37;100.00;99305.34;6278828;20;3537838;-54
2023/07/24 03:19:30;;;;;;;;;14.00;12.67;;;;;19.73;100.00;99302.53;6282381;20;3537822;-53
2023/07/24 03:21:58;;;;;;;;;19.00;17.50;;;;;19.73;100.00;99308.81;6278640;20;2834650;-54
2023/07/24 03:24:27;;;;;;;;;15.50;14.00;;;;;19.71;100.00;99304.53;6278044;20;2807612;-56
2023/07/24 03:26:55;;;;;;;;;15.33;15.33;;;;;19.81;100.00;99299.84;6278644;20;3550454;-55
2023/07/24 03:29:24;;;;;;;;;17.00;15.33;;;;;19.79;100.00;99301.00;6278777;20;3558648;-55
2023/07/24 03:31:51;;;;;;;;;18.00;17.00;;;;;19.94;100.00;99308.41;6281149;20;2492065;-54
2023/07/24 03:34:20;;;;;;;;;22.67;22.67;;;;;20.10;100.00;99304.03;6280923;20;2838907;-55
2023/07/24 03:36:48;;;;;;;;;21.33;19.67;;;;;20.21;100.00;99305.59;6314227;20;3560658;-52
2023/07/24 03:39:16;;;;;;;;;26.67;23.00;;;;;20.30;100.00;99301.88;6280854;20;3587753;-50
2023/07/24 03:41:44;;;;;;;;;22.33;21.67;;;;;20.29;100.00;99306.47;6281838;20;3569091;-53
2023/07/24 03:44:13;;;;;;;;;23.00;21.67;;;;;20.45;100.00;99302.09;6281009;20;3573167;-54
2023/07/24 03:46:41;;;;;;;;;25.67;24.67;;;;;20.37;100.00;99301.03;6280933;20;3600325;-54
2023/07/24 03:49:09;;;;;;;;;26.00;26.00;;;;;20.45;100.00;99302.94;6282196;20;3585823;-54
2023/07/24 03:51:37;;;;;;;;;24.67;23.33;;;;;20.66;100.00;99304.38;6281485;20;3587748;-49
2023/07/24 03:54:06;;;;;;;;;24.33;21.33;;;;;20.49;100.00;99300.75;6280194;20;3567009;-54
2023/07/24 03:56:35;;;;;;;;;27.00;26.00;;;;;20.57;100.00;99295.34;6278640;20;3594223;-53
2023/07/24 03:59:03;;;;;;;;;25.33;22.00;;;;;20.85;100.00;99300.47;6311654;20;3586705;-52
2023/07/24 04:01:31;;;;;;;;;28.33;25.33;;;;;20.61;100.00;99292.06;6283616;20;3600326;-51
2023/07/24 04:03:59;;;;;;;;;26.00;25.67;;;;;20.60;100.00;99293.09;6282489;20;3600366;-52
2023/07/24 04:06:28;;;;;;;;;28.00;25.00;;;;;20.70;100.00;99303.88;6278405;20;2686877;-52
2023/07/24 04:08:59;;;;;;;;;26.50;25.75;;;;;20.79;100.00;99296.53;6307980;20;3600255;-57
2023/07/24 04:11:27;;;;;;;;;27.00;24.67;;;;;20.54;100.00;99293.78;6313137;20;3575358;-54
2023/07/24 04:13:55;;;;;;;;;25.00;25.00;;;;;20.70;100.00;99301.16;6282647;20;3598161;-54
2023/07/24 04:16:23;;;;;;;;;34.67;29.00;;;;;20.72;100.00;99290.91;6280768;20;3584824;-55
2023/07/24 04:18:55;;;;;;;;;28.33;28.00;;;;;20.71;100.00;99294.66;6279576;20;3599351;-53
2023/07/24 04:21:23;;;;;;;;;28.00;26.33;;;;;20.79;100.00;99291.94;6284151;20;3592997;-53
2023/07/24 04:23:51;;;;;;;;;30.67;26.67;;;;;20.77;100.00;99279.47;6281724;20;3583642;-53
2023/07/24 04:26:19;;;;;;;;;32.67;30.67;;;;;20.95;100.00;99287.50;6275250;20;3588953;-51
2023/07/24 04:28:48;;;;;;;;;31.00;29.67;;;;;21.08;100.00;99281.53;6279704;20;3588833;-53
2023/07/24 04:31:16;;;;;;;;;31.33;28.33;;;;;20.87;100.00;99282.03;6285040;20;3588895;-54
2023/07/24 04:33:45;;;;;;;;;35.67;31.33;;;;;21.04;100.00;99283.75;6279862;20;3601321;-51
2023/07/24 04:36:13;;;;;;;;;38.67;32.67;;;;;21.11;100.00;99282.03;6314799;20;3604453;-53
2023/07/24 04:38:46;;;;;;;;;38.33;34.00;;;;;21.21;100.00;99282.69;6280722;20;3604419;-57
2023/07/24 04:41:15;;;;;;;;;37.33;32.67;;;;;21.27;100.00;99282.03;6285439;20;3597149;-56
2023/07/24 04:43:44;;;;;;;;;40.67;34.33;;;;;21.26;100.00;99280.31;6279443;20;3608654;-49
2023/07/24 04:46:12;;;;;;;;;37.33;31.67;;;;;21.33;100.00;99285.94;6280701;20;3602413;-52
2023/07/24 04:48:43;;;;;;;;;38.75;34.38;;;;;21.38;100.00;99277.22;6300883;20;3605443;-50
2023/07/24 04:51:11;;;;;;;;;39.33;33.33;;;;;21.45;100.00;99280.97;6282849;20;3591992;-49
2023/07/24 04:53:39;;;;;;;;;36.00;32.00;;;;;21.75;100.00;99286.69;6279251;20;3602335;-54
2023/07/24 04:56:08;;;;;;;;;33.67;31.00;;;;;21.96;100.00;99297.91;6281142;20;3590968;-53
2023/07/24 04:58:36;;;;;;;;;38.00;33.00;;;;;21.89;100.00;99285.97;6283317;20;3568074;-53
2023/07/24 05:01:04;;;;;;;;;43.33;35.00;;;;;21.99;100.00;99286.63;6285954;20;3582545;-54
2023/07/24 05:03:33;;;;;;;;;33.33;31.00;;;;;21.95;100.00;99296.19;6287307;20;3590913;-51
2023/07/24 05:06:01;;;;;;;;;38.00;34.00;;;;;21.99;100.00;99293.97;6283961;20;3580517;-54
2023/07/24 05:08:30;;;;;;;;;35.33;31.00;;;;;22.19;100.00;99295.25;6283644;20;3592993;-51
2023/07/24 05:10:59;;;;;;;;;39.67;35.00;;;;;22.35;100.00;99294.31;6318815;20;3585776;-54
2023/07/24 05:13:27;;;;;;;;;39.00;34.00;;;;;22.58;100.00;99297.06;6282898;20;3597129;-52
2023/07/24 05:15:55;;;;;;;;;35.33;32.00;;;;;22.53;100.00;99300.34;6284482;20;3597535;-52
2023/07/24 05:18:24;;;;;;;;;36.33;32.67;;;;;22.88;100.00;99302.66;6286441;20;3612826;-57
2023/07/24 05:20:52;;;;;;;;;37.67;33.67;;;;;22.83;99.78;99300.50;6288081;20;3585892;-50
2023/07/24 05:23:20;;;;;;;;;38.00;33.33;;;;;24.49;92.62;99313.16;6288420;20;3588943;-54
2023/07/24 05:26:00;;;;;;;;;37.00;31.75;;;;;23.70;94.43;99313.75;6289370;20;3609838;-56
2023/07/24 05:28:31;;;;;;;;;35.00;32.25;;;;;23.53;95.98;99310.31;6314645;20;3614816;-56
2023/07/24 05:31:04;;;;;;;;;39.67;34.00;;;;;23.34;96.52;99308.13;6317071;20;3585684;-51
2023/07/24 05:33:32;;;;;;;;;38.33;33.67;;;;;23.69;95.37;99309.28;6286044;20;3587842;-54
2023/07/24 05:36:03;;;;;;;;;35.67;32.00;;;;;23.88;93.98;99308.78;6285218;20;3581541;-55
2023/07/24 05:38:31;;;;;;;;;37.33;32.00;;;;;23.82;94.56;99315.00;6282567;20;3603463;-52
2023/07/24 05:41:02;;;;;;;;;36.00;33.00;;;;;24.04;94.61;99312.34;6286526;20;3586737;-50
2023/07/24 05:43:32;;;;;;;;;40.67;34.67;;;;;24.00;93.77;99309.13;6288211;20;3590949;-53
2023/07/24 05:46:00;;;;;;;;;38.00;32.00;;;;;23.98;94.83;99310.38;6288751;20;3600299;-54
2023/07/24 05:48:28;;;;;;;;;35.33;31.67;;;;;23.91;93.92;99309.41;6284144;20;3608685;-54
2023/07/24 05:50:57;;;;;;;;;40.67;34.67;;;;;24.32;93.16;99307.84;6288112;20;3585737;-54
2023/07/24 05:53:25;;;;;;;;;35.00;32.33;;;;;24.47;93.20;99301.53;6287362;20;3599219;-55
2023/07/24 05:56:01;;;;;;;;;32.33;30.33;;;;;24.16;93.57;99299.84;6288021;20;3591034;-52
2023/07/24 05:58:29;;;;;;;;;31.67;29.33;;;;;24.40;92.81;99301.41;6283376;20;3590930;-55
2023/07/24 06:00:58;;;;;;;;;30.67;30.00;;;;;24.44;92.12;99300.00;6288709;20;3582962;-51
2023/07/24 06:03:26;;;;;;;;;31.33;30.00;;;;;24.75;92.41;99302.47;6287159;20;3590908;-55
2023/07/24 06:05:55;;;;;;;;;33.67;31.33;;;;;24.86;90.82;99312.09;6285725;20;3596155;-53
2023/07/24 06:08:23;;;;;;;;;31.33;29.00;;;;;24.86;90.07;99301.09;6286072;20;3593022;-54
2023/07/24 06:10:51;;;;;;;;;34.00;31.00;;;;;24.91;89.44;99306.00;6284932;20;3604655;-56
2023/07/24 06:13:20;;;;;;;;;26.67;25.00;;;;;25.15;89.43;99296.50;6286581;20;3597134;-50
2023/07/24 06:15:49;;;;;;;;;34.00;30.50;;;;;25.07;88.58;99292.00;6269994;20;3607534;-53
2023/07/24 06:18:20;;;;;;;;;30.71;29.00;;;;;25.33;88.62;99296.00;6332648;20;3584624;-55
2023/07/24 06:20:53;;;;;;;;;28.00;26.33;;;;;25.62;86.76;99297.75;6284414;20;3592077;-54
2023/07/24 06:23:24;;;;;;;;;31.14;29.14;;;;;25.55;87.48;99294.09;6333472;20;3584811;-54
2023/07/24 06:25:53;;;;;;;;;30.00;26.00;;;;;25.91;86.25;99288.41;6286572;20;3600306;-52
2023/07/24 06:28:21;;;;;;;;;27.33;26.00;;;;;25.72;86.51;99297.34;6284006;20;3588822;-53
2023/07/24 06:30:53;;;;;;;;;23.67;22.33;;;;;25.94;85.95;99290.75;6283292;20;3580598;-53
2023/07/24 06:33:22;;;;;;;;;32.50;27.75;;;;;26.18;85.15;99292.13;6285985;20;3622801;-56
2023/07/24 06:35:53;;;;;;;;;28.57;26.00;;;;;26.21;85.33;99291.72;6333171;20;3596119;-53
2023/07/24 06:38:21;;;;;;;;;23.67;23.00;;;;;26.44;84.63;99285.88;6282929;20;3582678;-56
2023/07/24 06:40:50;;;;;;;;;23.50;23.50;;;;;26.36;83.81;99280.56;6284390;20;3589872;-51
2023/07/24 06:43:21;;;;;;;;;23.71;21.71;;;;;26.81;82.71;99286.41;6334717;20;3576347;-52
2023/07/24 06:45:50;;;;;;;;;28.00;26.67;;;;;27.23;80.61;99289.88;6285441;20;3584655;-52
2023/07/24 06:48:18;;;;;;;;;21.00;19.67;;;;;27.02;80.52;99298.31;6282679;20;3568069;-51
2023/07/24 06:50:46;;;;;;;;;17.33;17.33;;;;;27.31;81.08;99291.56;6285898;20;3579430;-57
2023/07/24 06:53:14;;;;;;;;;22.00;20.00;;;;;27.58;78.67;99295.16;6273589;20;3570117;-57
2023/07/24 06:55:42;;;;;;;;;20.33;18.67;;;;;27.69;78.12;99297.25;6281640;20;3582704;-51
2023/07/24 06:58:11;;;;;;;;;26.25;26.25;;;;;27.92;77.75;99287.69;6283303;20;3602454;-48
2023/07/24 07:00:42;;;;;;;;;24.00;22.57;;;;;27.61;78.00;99286.44;6332395;20;3591427;-49
2023/07/24 07:03:10;;;;;;;;;24.00;20.33;;;;;28.10;76.80;99290.59;6281266;20;3573217;-49
2023/07/24 07:05:40;;;;;;;;;25.67;23.00;;;;;27.71;78.19;99295.13;6280923;20;3582564;-52
2023/07/24 07:08:08;;;;;;;;;26.00;23.33;;;;;28.55;75.56;99293.38;6280489;20;3584806;-52
2023/07/24 07:10:36;;;;;;;;;22.00;20.67;;;;;28.87;74.70;99293.41;6284626;20;3585741;-48
2023/07/24 07:13:05;;;;;;;;;21.75;21.75;;;;;29.33;72.37;99306.03;6284904;20;3587314;-48
2023/07/24 07:15:36;;;;;;;;;20.29;18.43;;;;;29.21;71.36;99288.50;6330727;20;3567960;-51
2023/07/24 07:18:05;;;;;;;;;17.67;16.33;;;;;29.95;70.90;99289.50;6277599;20;3566082;-55
2023/07/24 07:20:34;;;;;;;;;18.33;17.00;;;;;29.73;69.95;99287.19;6309669;20;3577474;-53
2023/07/24 07:23:03;;;;;;;;;19.00;19.00;;;;;29.83;69.57;99289.41;6312890;20;3558715;-53
2023/07/24 07:25:34;;;;;;;;;22.00;19.71;;;;;29.89;69.68;99282.97;6333038;20;3579598;-51
2023/07/24 07:28:02;;;;;;;;;18.67;18.67;;;;;30.09;68.53;99281.88;6284001;20;3574254;-54
2023/07/24 07:30:32;;;;;;;;;21.33;18.33;;;;;30.68;66.16;99277.50;6282489;20;3572331;-55
2023/07/24 07:33:04;;;;;;;;;18.29;17.00;;;;;30.74;65.24;99279.31;6333550;20;3562779;-57
2023/07/24 07:35:33;;;;;;;;;19.67;17.33;;;;;30.36;67.25;99280.50;6283195;20;3560778;-57
2023/07/24 07:38:02;;;;;;;;;17.33;17.33;;;;;30.90;64.58;99280.59;6282159;20;3565908;-52
2023/07/24 07:40:31;;;;;;;;;18.00;16.50;;;;;30.66;65.29;99276.88;6280147;20;2837850;-55
2023/07/24 07:43:00;;;;;;;;;16.00;14.67;;;;;30.26;64.68;99269.13;6307747;20;3548344;-53
2023/07/24 07:45:28;;;;;;;;;16.00;14.67;;;;;31.14;63.32;99278.72;6315354;20;3548249;-48
2023/07/24 07:47:56;;;;;;;;;18.67;18.00;;;;;31.54;61.80;99275.28;6278594;20;3577369;-52
2023/07/24 07:50:25;;;;;;;;;16.67;16.33;;;;;31.50;61.92;99276.88;6286353;20;3562797;-53
2023/07/24 07:52:53;;;;;;;;;18.67;17.67;;;;;31.49;62.70;99275.16;6283668;20;3577414;-52
2023/07/24 07:55:21;;;;;;;;;20.33;18.33;;;;;31.01;62.56;99268.69;6281941;20;3573192;-48
2023/07/24 07:57:49;;;;;;;;;17.67;17.67;;;;;30.80;62.72;99264.50;6277302;20;3567075;-51
2023/07/24 08:00:18;;;;;;;;;17.67;17.67;;;;;30.91;62.90;99270.34;6282557;20;3569206;-50
2023/07/24 08:02:46;;;;;;;;;15.67;15.67;;;;;31.01;61.37;99277.00;6281905;20;3556599;-51
2023/07/24 08:05:16;;;;;;;;;20.67;19.67;;;;;31.09;59.59;99267.50;6279266;20;3576470;-53
2023/07/24 08:07:49;;;;;;;;;18.00;16.00;;;;;31.36;58.88;99269.81;6309672;20;3567068;-53
2023/07/24 08:10:18;;;;;;;;;19.67;18.00;;;;;31.33;57.45;99270.31;6310257;20;3562783;-47
2023/07/24 08:12:49;;;;;;;;;23.14;20.71;;;;;31.61;57.07;99273.25;6332418;20;3574199;-51
2023/07/24 08:15:17;;;;;;;;;20.33;18.67;;;;;31.49;57.05;99276.03;6282789;20;3577354;-51
2023/07/24 08:17:45;;;;;;;;;19.00;18.00;;;;;31.58;55.43;99268.19;6280371;20;3570232;-54
2023/07/24 08:20:13;;;;;;;;;20.33;20.33;;;;;31.78;55.05;99272.50;6280722;20;3551352;-50
2023/07/24 08:22:41;;;;;;;;;13.33;13.33;;;;;31.43;55.74;99276.13;6282971;20;3522306;-51
2023/07/24 08:25:12;;;;;;;;;19.86;16.14;;;;;31.83;54.82;99275.38;6333325;20;3562792;-50
2023/07/24 08:27:40;;;;;;;;;20.00;20.00;;;;;31.86;54.81;99266.56;6278456;20;3563810;-51
2023/07/24 08:30:29;;;;;;;;;19.67;17.00;;;;;31.89;53.14;99253.06;6284243;20;3566092;-50
2023/07/24 08:32:57;;;;;;;;;20.33;16.67;;;;;32.19;53.08;99263.16;6288037;20;3568064;-55
2023/07/24 08:35:26;;;;;;;;;19.33;18.00;;;;;32.23;51.42;99271.81;6285039;20;3577399;-50
2023/07/24 08:37:57;;;;;;;;;16.00;16.00;;;;;31.64;52.18;99256.09;6335070;20;3564837;-49
2023/07/24 08:40:25;;;;;;;;;18.33;16.33;;;;;31.74;52.87;99265.75;6287208;20;3572215;-52
2023/07/24 08:42:55;;;;;;;;;19.33;19.33;;;;;31.43;53.66;99259.47;6284640;20;3568000;-54
2023/07/24 08:45:25;;;;;;;;;19.33;18.33;;;;;31.70;53.11;99257.06;6315848;20;3564979;-50
2023/07/24 08:47:56;;;;;;;;;24.50;21.75;;;;;32.31;53.36;99261.19;6313761;20;3583704;-51
2023/07/24 08:50:26;;;;;;;;;18.00;16.67;;;;;31.71;51.84;99261.53;6313556;20;3569476;-53
2023/07/24 08:52:57;;;;;;;;;16.67;15.33;;;;;31.01;52.54;99257.59;6317498;20;3555537;-52
2023/07/24 08:55:26;;;;;;;;;19.33;17.67;;;;;31.29;53.00;99247.75;6283824;20;3564881;-50
2023/07/24 08:57:54;;;;;;;;;18.00;18.00;;;;;31.16;50.79;99259.91;6286603;20;3576369;-51
2023/07/24 09:00:22;;;;;;;;;20.00;18.33;;;;;31.09;53.22;99264.72;6290705;20;3577333;-49
2023/07/24 09:02:50;;;;;;;;;19.33;19.33;;;;;31.09;52.92;99255.56;6281740;20;3573309;-54
2023/07/24 09:05:19;;;;;;;;;19.33;19.33;;;;;31.45;52.45;99246.22;6286884;20;3572368;-54
2023/07/24 09:07:47;;;;;;;;;25.50;22.00;;;;;32.12;51.32;99241.09;6283764;20;2841008;-55
2023/07/24 09:10:28;;;;;;;;;21.86;19.43;;;;;31.69;50.82;99247.03;6303608;20;3566942;-57
2023/07/24 09:12:57;;;;;;;;;18.67;14.33;;;;;32.16;50.71;99243.38;6282324;20;2815995;-55
2023/07/24 09:15:26;;;;;;;;;22.33;19.67;;;;;32.01;49.43;99233.59;6315381;20;3569043;-52
2023/07/24 09:17:57;;;;;;;;;22.71;20.00;;;;;31.84;50.29;99227.13;6332954;20;3556550;-53
2023/07/24 09:20:26;;;;;;;;;22.33;19.67;;;;;33.13;47.16;99236.88;6283093;20;3569166;-55
2023/07/24 09:22:58;;;;;;;;;22.33;17.00;;;;;32.22;47.35;99229.31;6283560;20;3578383;-57
2023/07/24 09:25:34;;;;;;;;;20.00;18.00;;;;;32.64;47.42;99231.81;6335305;20;3574217;-53
2023/07/24 09:28:18;;;;;;;;;23.33;20.33;;;;;32.72;48.06;99231.41;6283475;20;3572227;-53
2023/07/24 09:30:58;;;;;;;;;24.00;23.33;;;;;32.35;46.34;99220.69;6286983;20;1894095;-53
2023/07/24 09:33:40;;;;;;;;;20.86;19.14;;;;;32.21;46.57;99224.03;6333126;20;3573147;-55
2023/07/24 09:36:11;;;;;;;;;21.86;19.00;;;;;32.97;46.01;99235.75;6304499;20;3581589;-55
2023/07/24 09:38:40;;;;;;;;;19.67;19.33;;;;;32.45;47.24;99219.22;6286679;20;3567942;-56
2023/07/24 09:41:08;;;;;;;;;18.67;18.00;;;;;31.82;47.33;99212.63;6285382;20;3567009;-51
2023/07/24 09:43:36;;;;;;;;;19.67;19.00;;;;;32.35;46.05;99214.28;6286085;20;3565972;-57
2023/07/24 09:46:10;;;;;;;;;23.33;20.67;;;;;32.63;45.72;99212.63;6289141;20;1889738;-55
2023/07/24 09:48:41;;;;;;;;;20.86;19.14;;;;;32.21;46.92;99210.13;6331337;20;3577476;-50
2023/07/24 09:51:31;;;;;;;;;21.33;20.00;;;;;32.92;44.89;99208.69;6280908;20;3556529;-55
2023/07/24 09:54:26;;;;;;;;;25.14;19.86;;;;;32.14;44.93;99211.09;6335324;20;3574323;-49
2023/07/24 09:56:59;;;;;;;;;19.57;18.43;;;;;33.06;44.84;99206.44;6301821;20;3562917;-52
2023/07/24 09:59:48;;;;;;;;;17.00;17.00;;;;;33.56;43.18;99204.72;6285541;20;3569089;-53
2023/07/24 10:02:17;;;;;;;;;25.00;22.00;;;;;33.56;43.32;99199.16;6281437;20;3572144;-50
2023/07/24 10:04:46;;;;;;;;;19.00;18.67;;;;;33.23;43.09;99192.53;6283413;20;3566918;-55
2023/07/24 10:07:16;;;;;;;;;21.33;20.00;;;;;32.57;44.12;99192.19;6282563;20;3581583;-56
2023/07/24 10:09:44;;;;;;;;;25.33;22.33;;;;;33.60;43.59;99190.03;6317389;20;1887586;-54
2023/07/24 10:12:19;;;;;;;;;22.71;20.00;;;;;32.96;41.83;99190.38;6328037;20;3565914;-55
2023/07/24 10:14:49;;;;;;;;;21.67;20.00;;;;;33.32;42.39;99190.97;6284650;20;3570034;-57
2023/07/24 10:17:39;;;;;;;;;24.00;22.86;;;;;33.94;41.53;99187.13;6329951;20;3580484;-54
2023/07/24 10:20:12;;;;;;;;;25.00;21.71;;;;;34.08;40.38;99174.50;6302088;20;3581544;-55
2023/07/24 10:22:43;;;;;;;;;21.14;20.29;;;;;33.65;38.21;99170.59;6301927;20;3569102;-56
2023/07/24 10:25:14;;;;;;;;;22.00;20.14;;;;;33.92;38.29;99169.00;6302562;20;3579452;-52
2023/07/24 10:27:44;;;;;;;;;22.67;21.67;;;;;33.93;37.51;99159.53;6284651;20;1889831;-57
2023/07/24 10:30:16;;;;;;;;;21.43;20.57;;;;;34.00;37.27;99157.38;6334086;20;3581566;-57
2023/07/24 10:33:19;;;;;;;;;21.29;21.00;;;;;33.87;36.66;99145.53;6304421;20;3567985;-51
2023/07/24 10:35:54;;;;;;;;;22.33;19.33;;;;;34.16;36.02;99150.06;6285649;20;3572135;-52
2023/07/24 10:38:35;;;;;;;;;21.33;20.00;;;;;33.58;36.59;99142.09;6284412;20;3576300;-58
2023/07/24 10:41:08;;;;;;;;;13.33;10.00;;;;;34.26;35.42;99145.44;6282053;20;3507726;-56
2023/07/24 10:43:50;;;;;;;;;19.57;18.29;;;;;34.04;35.26;99144.59;6334053;20;3559633;-56
2023/07/24 10:46:20;;;;;;;;;19.67;19.00;;;;;34.60;35.21;99136.88;6285430;20;3563814;-55
2023/07/24 10:48:51;;;;;;;;;25.67;24.33;;;;;34.04;35.59;99130.66;6283293;20;1893128;-56
2023/07/24 10:51:22;;;;;;;;;19.57;18.86;;;;;34.13;35.53;99137.50;6332911;20;3579743;-55
2023/07/24 10:53:53;;;;;;;;;27.71;21.86;;;;;34.48;34.95;99127.81;6303694;20;3584730;-58
2023/07/24 10:56:21;;;;;;;;;19.33;14.67;;;;;34.08;34.57;99134.66;6281972;20;3543364;-57
2023/07/24 10:58:49;;;;;;;;;16.67;16.67;;;;;34.44;34.34;99127.50;6282082;20;3570166;-56
2023/07/24 11:01:20;;;;;;;;;20.86;18.71;;;;;34.40;34.80;99123.53;6304046;20;3573312;-57
2023/07/24 11:03:50;;;;;;;;;21.33;18.00;;;;;33.39;35.33;99112.88;6283128;20;3577375;-52
2023/07/24 11:06:22;;;;;;;;;23.57;20.86;;;;;33.83;36.11;99122.06;6330505;20;3578359;-56
2023/07/24 11:08:58;;;;;;;;;23.00;22.00;;;;;34.42;34.88;99123.28;6303850;20;3574385;-57
2023/07/24 11:11:34;;;;;;;;;25.71;21.14;;;;;34.05;34.87;99107.28;6300195;20;3578507;-54
2023/07/24 11:14:04;;;;;;;;;19.67;18.00;;;;;34.22;36.18;99110.81;6284766;20;3567964;-57